This is the latest recevied weather packets stored in our database for station/object KJ5IIV. If no packets are shown the sender has not sent any weather packets the latest 1 day(s).
| Time | Temp. | Humidity | Pressure | Rain* | Wind** | Luminosity | Snow |
|---|---|---|---|---|---|---|---|
| 1778077893 | 13.33° C | 88% | 1012.8 hPa | 0 mm | - | 86 W/m² | - |
| 1778077289 | 13.33° C | 88% | 1012.7 hPa | 0 mm | - | 99 W/m² | - |
| 1778076079 | 13.89° C | 87% | 1012.3 hPa | 0 mm | - | 128 W/m² | - |
| 1778075472 | 13.33° C | 87% | 1012.4 hPa | 0 mm | - | 98 W/m² | - |
| 1778074562 | 13.33° C | 87% | 1012.3 hPa | 0 mm | - | 61 W/m² | - |
| 1778073956 | 13.89° C | 86% | 1012.3 hPa | 0 mm | - | 50 W/m² | - |
| 1778073653 | 13.89° C | 85% | 1012.2 hPa | 0 mm | - | 55 W/m² | - |
| 1778071232 | 13.89° C | 85% | 1011.7 hPa | 0 mm | - | 23 W/m² | - |
| 1778066996 | 15° C | 87% | 1010.2 hPa | 0 mm | - | 1 W/m² | - |
| 1778066390 | 15.56° C | 86% | 1009.8 hPa | 0 mm | - | 0 W/m² | - |
| 1778064876 | 16.11° C | 84% | 1009.6 hPa | 0 mm | - | 0 W/m² | - |
| 1778063666 | 16.11° C | 84% | 1009.3 hPa | 0 mm | - | 0 W/m² | - |
| 1778063363 | 16.11° C | 83% | 1009.2 hPa | 0 mm | - | 0 W/m² | - |
| 1778063061 | 16.11° C | 83% | 1009.4 hPa | 0 mm | - | 0 W/m² | - |
| 1778062152 | 16.11° C | 83% | 1009.2 hPa | 0 mm | - | 0 W/m² | - |
| 1778061850 | 16.11° C | 84% | 1009.2 hPa | 0 mm | - | 0 W/m² | - |
| 1778061548 | 16.11° C | 83% | 1009.2 hPa | 0 mm | - | 0 W/m² | - |
| 1778061246 | 16.67° C | 83% | 1009.1 hPa | 0 mm | - | 0 W/m² | - |
| 1778060942 | 16.67° C | 83% | 1008.7 hPa | 0 mm | - | 0 W/m² | - |
| 1778060641 | 16.67° C | 83% | 1008.9 hPa | 0 mm | - | 0 W/m² | - |
| 1778060338 | 16.67° C | 83% | 1009.2 hPa | 0 mm | - | 0 W/m² | - |
| 1778059431 | 17.22° C | 81% | 1008.9 hPa | 0 mm | - | 0 W/m² | - |
| 1778059127 | 17.22° C | 80% | 1008.9 hPa | 0 mm | - | 0 W/m² | - |
| 1778058220 | 17.78° C | 79% | 1009 hPa | 0 mm | - | 0 W/m² | - |
| 1778057006 | 17.78° C | 80% | 1008.7 hPa | 0 mm | - | 0 W/m² | - |
* Rain latest hour (hover to see other rain measurements)
** Current wind speed in m/s (hover to see current wind gust speed)